sensor_id;sensor_type;location;lat;lon;timestamp;P1;durP1;ratioP1;P2;durP2;ratioP2
52468;SDS011;38381;53.688;10.776;2024-01-11T00:03:03;13.50;;;10.93;;
52468;SDS011;38381;53.688;10.776;2024-01-11T00:08:04;12.55;;;9.95;;
52468;SDS011;38381;53.688;10.776;2024-01-11T00:13:04;13.48;;;10.07;;
52468;SDS011;38381;53.688;10.776;2024-01-11T00:18:04;12.15;;;10.50;;
52468;SDS011;38381;53.688;10.776;2024-01-11T00:23:06;12.73;;;10.97;;
52468;SDS011;38381;53.688;10.776;2024-01-11T00:28:06;13.00;;;10.80;;
52468;SDS011;38381;53.688;10.776;2024-01-11T00:33:07;11.77;;;9.70;;
52468;SDS011;38381;53.688;10.776;2024-01-11T00:38:07;11.95;;;10.65;;
52468;SDS011;38381;53.688;10.776;2024-01-11T00:43:07;12.55;;;9.82;;
52468;SDS011;38381;53.688;10.776;2024-01-11T00:48:08;13.30;;;11.00;;
52468;SDS011;38381;53.688;10.776;2024-01-11T00:53:08;13.02;;;10.25;;
52468;SDS011;38381;53.688;10.776;2024-01-11T00:58:10;14.37;;;11.30;;
52468;SDS011;38381;53.688;10.776;2024-01-11T01:03:10;16.00;;;11.73;;
52468;SDS011;38381;53.688;10.776;2024-01-11T01:08:11;14.60;;;11.07;;
52468;SDS011;38381;53.688;10.776;2024-01-11T01:13:11;16.10;;;13.85;;
52468;SDS011;38381;53.688;10.776;2024-01-11T01:18:11;17.35;;;13.50;;
52468;SDS011;38381;53.688;10.776;2024-01-11T01:23:12;16.33;;;12.57;;
52468;SDS011;38381;53.688;10.776;2024-01-11T01:28:12;16.83;;;13.43;;
52468;SDS011;38381;53.688;10.776;2024-01-11T01:33:13;15.18;;;12.40;;
52468;SDS011;38381;53.688;10.776;2024-01-11T01:38:13;19.30;;;13.70;;
52468;SDS011;38381;53.688;10.776;2024-01-11T01:43:14;17.25;;;12.88;;
52468;SDS011;38381;53.688;10.776;2024-01-11T01:48:14;21.88;;;14.85;;
52468;SDS011;38381;53.688;10.776;2024-01-11T01:53:15;15.57;;;12.90;;
52468;SDS011;38381;53.688;10.776;2024-01-11T01:58:15;20.20;;;13.70;;
52468;SDS011;38381;53.688;10.776;2024-01-11T02:03:18;17.15;;;13.90;;
52468;SDS011;38381;53.688;10.776;2024-01-11T02:08:18;18.88;;;13.55;;
52468;SDS011;38381;53.688;10.776;2024-01-11T02:13:21;21.17;;;15.35;;
52468;SDS011;38381;53.688;10.776;2024-01-11T02:18:22;22.05;;;16.05;;
52468;SDS011;38381;53.688;10.776;2024-01-11T02:23:24;22.23;;;15.80;;
52468;SDS011;38381;53.688;10.776;2024-01-11T02:28:26;20.30;;;16.63;;
52468;SDS011;38381;53.688;10.776;2024-01-11T02:33:27;21.33;;;14.55;;
52468;SDS011;38381;53.688;10.776;2024-01-11T02:38:27;18.95;;;14.50;;
52468;SDS011;38381;53.688;10.776;2024-01-11T02:43:28;21.70;;;15.93;;
52468;SDS011;38381;53.688;10.776;2024-01-11T02:48:29;24.40;;;17.08;;
52468;SDS011;38381;53.688;10.776;2024-01-11T02:53:30;24.20;;;16.27;;
52468;SDS011;38381;53.688;10.776;2024-01-11T02:58:34;19.80;;;16.42;;
52468;SDS011;38381;53.688;10.776;2024-01-11T03:03:34;20.67;;;15.57;;
52468;SDS011;38381;53.688;10.776;2024-01-11T03:08:35;19.60;;;14.88;;
52468;SDS011;38381;53.688;10.776;2024-01-11T03:13:36;18.80;;;13.73;;
52468;SDS011;38381;53.688;10.776;2024-01-11T03:18:36;19.38;;;15.27;;
52468;SDS011;38381;53.688;10.776;2024-01-11T03:23:37;17.55;;;12.82;;
52468;SDS011;38381;53.688;10.776;2024-01-11T03:28:37;19.73;;;12.82;;
52468;SDS011;38381;53.688;10.776;2024-01-11T03:33:38;18.60;;;14.13;;
52468;SDS011;38381;53.688;10.776;2024-01-11T03:38:38;18.00;;;13.98;;
52468;SDS011;38381;53.688;10.776;2024-01-11T03:43:38;20.35;;;14.48;;
52468;SDS011;38381;53.688;10.776;2024-01-11T03:48:39;19.88;;;14.13;;
52468;SDS011;38381;53.688;10.776;2024-01-11T03:53:39;17.35;;;13.30;;
52468;SDS011;38381;53.688;10.776;2024-01-11T03:58:40;23.90;;;16.60;;
52468;SDS011;38381;53.688;10.776;2024-01-11T04:03:42;22.10;;;15.27;;
52468;SDS011;38381;53.688;10.776;2024-01-11T04:08:42;18.90;;;14.68;;
52468;SDS011;38381;53.688;10.776;2024-01-11T04:13:43;20.25;;;15.32;;
52468;SDS011;38381;53.688;10.776;2024-01-11T04:18:43;20.23;;;15.77;;
52468;SDS011;38381;53.688;10.776;2024-01-11T04:23:44;24.70;;;17.00;;
52468;SDS011;38381;53.688;10.776;2024-01-11T04:28:45;22.35;;;17.52;;
52468;SDS011;38381;53.688;10.776;2024-01-11T04:33:46;24.98;;;18.27;;
52468;SDS011;38381;53.688;10.776;2024-01-11T04:38:46;22.70;;;16.50;;
52468;SDS011;38381;53.688;10.776;2024-01-11T04:43:47;25.88;;;17.20;;
52468;SDS011;38381;53.688;10.776;2024-01-11T04:48:47;22.90;;;16.55;;
52468;SDS011;38381;53.688;10.776;2024-01-11T04:53:49;20.42;;;15.68;;
52468;SDS011;38381;53.688;10.776;2024-01-11T04:58:49;23.00;;;16.98;;
52468;SDS011;38381;53.688;10.776;2024-01-11T05:03:50;24.23;;;16.52;;
52468;SDS011;38381;53.688;10.776;2024-01-11T05:08:51;24.92;;;17.88;;
52468;SDS011;38381;53.688;10.776;2024-01-11T05:13:52;22.43;;;17.70;;
52468;SDS011;38381;53.688;10.776;2024-01-11T05:18:54;20.33;;;15.32;;
52468;SDS011;38381;53.688;10.776;2024-01-11T05:23:55;25.42;;;16.70;;
52468;SDS011;38381;53.688;10.776;2024-01-11T05:28:56;24.45;;;16.10;;
52468;SDS011;38381;53.688;10.776;2024-01-11T05:33:56;21.92;;;14.98;;
52468;SDS011;38381;53.688;10.776;2024-01-11T05:38:57;23.58;;;16.92;;
52468;SDS011;38381;53.688;10.776;2024-01-11T05:43:58;20.02;;;14.15;;
52468;SDS011;38381;53.688;10.776;2024-01-11T05:48:58;23.67;;;16.60;;
52468;SDS011;38381;53.688;10.776;2024-01-11T05:53:59;23.83;;;17.60;;
52468;SDS011;38381;53.688;10.776;2024-01-11T05:58:59;20.83;;;15.40;;
52468;SDS011;38381;53.688;10.776;2024-01-11T06:04:00;23.73;;;15.60;;
52468;SDS011;38381;53.688;10.776;2024-01-11T06:09:00;19.42;;;14.35;;
52468;SDS011;38381;53.688;10.776;2024-01-11T06:14:01;31.40;;;15.15;;
52468;SDS011;38381;53.688;10.776;2024-01-11T06:19:02;19.85;;;13.07;;
52468;SDS011;38381;53.688;10.776;2024-01-11T06:24:03;19.13;;;12.10;;
52468;SDS011;38381;53.688;10.776;2024-01-11T06:29:03;18.05;;;12.27;;
52468;SDS011;38381;53.688;10.776;2024-01-11T06:34:04;19.15;;;11.30;;
52468;SDS011;38381;53.688;10.776;2024-01-11T06:39:04;15.50;;;10.63;;
52468;SDS011;38381;53.688;10.776;2024-01-11T06:44:05;18.80;;;10.10;;
52468;SDS011;38381;53.688;10.776;2024-01-11T06:49:05;15.05;;;9.95;;
52468;SDS011;38381;53.688;10.776;2024-01-11T06:54:06;15.05;;;11.13;;
52468;SDS011;38381;53.688;10.776;2024-01-11T06:59:07;17.23;;;11.88;;
52468;SDS011;38381;53.688;10.776;2024-01-11T07:04:07;17.00;;;11.70;;
52468;SDS011;38381;53.688;10.776;2024-01-11T07:09:08;15.82;;;11.02;;
52468;SDS011;38381;53.688;10.776;2024-01-11T07:14:08;13.70;;;9.50;;
52468;SDS011;38381;53.688;10.776;2024-01-11T07:19:09;13.93;;;9.88;;
52468;SDS011;38381;53.688;10.776;2024-01-11T07:24:09;21.15;;;11.75;;
52468;SDS011;38381;53.688;10.776;2024-01-11T07:29:10;14.25;;;10.43;;
52468;SDS011;38381;53.688;10.776;2024-01-11T07:34:10;17.45;;;10.93;;
52468;SDS011;38381;53.688;10.776;2024-01-11T07:39:11;15.13;;;10.48;;
52468;SDS011;38381;53.688;10.776;2024-01-11T07:44:11;13.73;;;9.35;;
52468;SDS011;38381;53.688;10.776;2024-01-11T07:49:12;18.80;;;11.77;;
52468;SDS011;38381;53.688;10.776;2024-01-11T07:54:12;13.18;;;9.98;;
52468;SDS011;38381;53.688;10.776;2024-01-11T07:59:12;14.77;;;10.85;;
52468;SDS011;38381;53.688;10.776;2024-01-11T08:04:14;14.83;;;10.10;;
52468;SDS011;38381;53.688;10.776;2024-01-11T08:09:14;16.92;;;10.70;;
52468;SDS011;38381;53.688;10.776;2024-01-11T08:14:15;11.05;;;9.07;;
52468;SDS011;38381;53.688;10.776;2024-01-11T08:19:16;12.55;;;8.82;;
52468;SDS011;38381;53.688;10.776;2024-01-11T08:24:16;12.98;;;9.73;;
52468;SDS011;38381;53.688;10.776;2024-01-11T08:29:18;10.73;;;7.78;;
52468;SDS011;38381;53.688;10.776;2024-01-11T08:34:22;13.32;;;11.20;;
52468;SDS011;38381;53.688;10.776;2024-01-11T08:39:23;10.68;;;6.70;;
52468;SDS011;38381;53.688;10.776;2024-01-11T08:44:24;11.23;;;8.35;;
52468;SDS011;38381;53.688;10.776;2024-01-11T08:49:24;10.05;;;6.53;;
52468;SDS011;38381;53.688;10.776;2024-01-11T08:54:25;8.45;;;7.22;;
52468;SDS011;38381;53.688;10.776;2024-01-11T08:59:26;9.18;;;6.32;;
52468;SDS011;38381;53.688;10.776;2024-01-11T09:04:27;10.02;;;7.30;;
52468;SDS011;38381;53.688;10.776;2024-01-11T09:09:29;7.90;;;5.35;;
52468;SDS011;38381;53.688;10.776;2024-01-11T09:14:30;8.70;;;5.05;;
52468;SDS011;38381;53.688;10.776;2024-01-11T09:19:30;5.82;;;5.03;;
52468;SDS011;38381;53.688;10.776;2024-01-11T09:24:31;5.95;;;5.10;;
52468;SDS011;38381;53.688;10.776;2024-01-11T09:29:31;6.07;;;4.22;;
52468;SDS011;38381;53.688;10.776;2024-01-11T09:34:31;7.80;;;4.30;;
52468;SDS011;38381;53.688;10.776;2024-01-11T09:39:32;4.75;;;4.05;;
52468;SDS011;38381;53.688;10.776;2024-01-11T09:44:32;6.18;;;4.28;;
52468;SDS011;38381;53.688;10.776;2024-01-11T09:49:33;6.75;;;4.55;;
52468;SDS011;38381;53.688;10.776;2024-01-11T09:54:36;7.28;;;4.78;;
52468;SDS011;38381;53.688;10.776;2024-01-11T09:59:37;6.50;;;4.53;;
52468;SDS011;38381;53.688;10.776;2024-01-11T10:04:40;4.75;;;3.30;;
52468;SDS011;38381;53.688;10.776;2024-01-11T10:09:42;5.35;;;4.20;;
52468;SDS011;38381;53.688;10.776;2024-01-11T10:14:42;7.15;;;3.75;;
52468;SDS011;38381;53.688;10.776;2024-01-11T10:19:43;6.47;;;4.10;;
52468;SDS011;38381;53.688;10.776;2024-01-11T10:24:43;6.90;;;4.50;;
52468;SDS011;38381;53.688;10.776;2024-01-11T10:29:44;6.53;;;4.78;;
52468;SDS011;38381;53.688;10.776;2024-01-11T10:34:45;5.97;;;4.07;;
52468;SDS011;38381;53.688;10.776;2024-01-11T10:39:46;7.30;;;5.05;;
52468;SDS011;38381;53.688;10.776;2024-01-11T10:44:50;9.20;;;5.30;;
52468;SDS011;38381;53.688;10.776;2024-01-11T10:49:54;7.90;;;6.13;;
52468;SDS011;38381;53.688;10.776;2024-01-11T10:54:57;4.97;;;4.07;;
52468;SDS011;38381;53.688;10.776;2024-01-11T10:59:59;5.72;;;3.95;;
52468;SDS011;38381;53.688;10.776;2024-01-11T11:05:03;6.53;;;4.38;;
52468;SDS011;38381;53.688;10.776;2024-01-11T11:10:06;6.70;;;5.07;;
52468;SDS011;38381;53.688;10.776;2024-01-11T11:15:09;7.20;;;5.30;;
52468;SDS011;38381;53.688;10.776;2024-01-11T11:20:12;7.53;;;5.30;;
52468;SDS011;38381;53.688;10.776;2024-01-11T11:25:25;7.43;;;5.53;;
52468;SDS011;38381;53.688;10.776;2024-01-11T11:30:26;9.30;;;5.32;;
52468;SDS011;38381;53.688;10.776;2024-01-11T11:35:27;6.97;;;5.35;;
52468;SDS011;38381;53.688;10.776;2024-01-11T11:40:37;7.40;;;4.43;;
52468;SDS011;38381;53.688;10.776;2024-01-11T11:45:43;9.85;;;6.05;;
52468;SDS011;38381;53.688;10.776;2024-01-11T11:50:45;9.63;;;5.65;;
52468;SDS011;38381;53.688;10.776;2024-01-11T11:55:45;6.55;;;5.70;;
52468;SDS011;38381;53.688;10.776;2024-01-11T12:00:46;8.73;;;6.18;;
52468;SDS011;38381;53.688;10.776;2024-01-11T12:05:47;7.78;;;5.75;;
52468;SDS011;38381;53.688;10.776;2024-01-11T12:10:48;8.63;;;6.47;;
52468;SDS011;38381;53.688;10.776;2024-01-11T12:15:48;7.57;;;6.28;;
52468;SDS011;38381;53.688;10.776;2024-01-11T12:20:49;6.05;;;5.45;;
52468;SDS011;38381;53.688;10.776;2024-01-11T12:25:53;8.65;;;6.50;;
52468;SDS011;38381;53.688;10.776;2024-01-11T12:30:53;9.23;;;6.50;;
52468;SDS011;38381;53.688;10.776;2024-01-11T12:35:54;11.55;;;5.78;;
52468;SDS011;38381;53.688;10.776;2024-01-11T12:40:54;12.05;;;6.68;;
52468;SDS011;38381;53.688;10.776;2024-01-11T12:45:55;10.77;;;6.53;;
52468;SDS011;38381;53.688;10.776;2024-01-11T12:50:55;10.52;;;8.05;;
52468;SDS011;38381;53.688;10.776;2024-01-11T12:56:03;10.55;;;6.65;;
52468;SDS011;38381;53.688;10.776;2024-01-11T13:01:11;14.93;;;8.10;;
52468;SDS011;38381;53.688;10.776;2024-01-11T13:06:12;13.70;;;7.70;;
52468;SDS011;38381;53.688;10.776;2024-01-11T13:11:14;10.30;;;7.45;;
52468;SDS011;38381;53.688;10.776;2024-01-11T13:16:17;9.18;;;7.28;;
52468;SDS011;38381;53.688;10.776;2024-01-11T13:21:19;11.50;;;7.30;;
52468;SDS011;38381;53.688;10.776;2024-01-11T13:26:19;11.68;;;6.60;;
52468;SDS011;38381;53.688;10.776;2024-01-11T13:31:19;10.82;;;6.35;;
52468;SDS011;38381;53.688;10.776;2024-01-11T13:36:21;8.90;;;6.20;;
52468;SDS011;38381;53.688;10.776;2024-01-11T13:41:21;10.20;;;6.72;;
52468;SDS011;38381;53.688;10.776;2024-01-11T13:46:22;9.80;;;6.65;;
52468;SDS011;38381;53.688;10.776;2024-01-11T13:51:23;8.63;;;6.68;;
52468;SDS011;38381;53.688;10.776;2024-01-11T13:56:24;18.05;;;6.70;;
52468;SDS011;38381;53.688;10.776;2024-01-11T14:01:24;10.70;;;6.55;;
52468;SDS011;38381;53.688;10.776;2024-01-11T14:06:25;9.20;;;6.85;;
52468;SDS011;38381;53.688;10.776;2024-01-11T14:11:25;11.30;;;6.40;;
52468;SDS011;38381;53.688;10.776;2024-01-11T14:16:26;10.88;;;6.60;;
52468;SDS011;38381;53.688;10.776;2024-01-11T14:21:26;9.23;;;6.13;;
52468;SDS011;38381;53.688;10.776;2024-01-11T14:26:26;8.05;;;5.68;;
52468;SDS011;38381;53.688;10.776;2024-01-11T14:31:27;8.85;;;6.15;;
52468;SDS011;38381;53.688;10.776;2024-01-11T14:36:27;9.77;;;4.88;;
52468;SDS011;38381;53.688;10.776;2024-01-11T14:41:28;12.77;;;7.85;;
52468;SDS011;38381;53.688;10.776;2024-01-11T14:46:29;7.40;;;5.88;;
52468;SDS011;38381;53.688;10.776;2024-01-11T14:51:30;5.32;;;4.82;;
52468;SDS011;38381;53.688;10.776;2024-01-11T14:56:33;10.27;;;7.05;;
52468;SDS011;38381;53.688;10.776;2024-01-11T15:01:35;9.68;;;6.00;;
52468;SDS011;38381;53.688;10.776;2024-01-11T15:06:35;6.18;;;4.97;;
52468;SDS011;38381;53.688;10.776;2024-01-11T15:11:36;8.77;;;5.03;;
52468;SDS011;38381;53.688;10.776;2024-01-11T15:16:37;9.45;;;6.43;;
52468;SDS011;38381;53.688;10.776;2024-01-11T15:21:39;9.70;;;6.17;;
52468;SDS011;38381;53.688;10.776;2024-01-11T15:26:39;7.40;;;6.60;;
52468;SDS011;38381;53.688;10.776;2024-01-11T15:31:40;6.90;;;6.25;;
52468;SDS011;38381;53.688;10.776;2024-01-11T15:36:43;6.60;;;4.82;;
52468;SDS011;38381;53.688;10.776;2024-01-11T15:41:45;9.07;;;6.13;;
52468;SDS011;38381;53.688;10.776;2024-01-11T15:46:47;10.80;;;7.03;;
52468;SDS011;38381;53.688;10.776;2024-01-11T15:51:48;10.23;;;7.70;;
52468;SDS011;38381;53.688;10.776;2024-01-11T15:56:48;8.70;;;7.10;;
52468;SDS011;38381;53.688;10.776;2024-01-11T16:01:48;7.90;;;6.63;;
52468;SDS011;38381;53.688;10.776;2024-01-11T16:06:49;8.23;;;6.07;;
52468;SDS011;38381;53.688;10.776;2024-01-11T16:11:49;7.47;;;6.72;;
52468;SDS011;38381;53.688;10.776;2024-01-11T16:16:50;7.65;;;6.22;;
52468;SDS011;38381;53.688;10.776;2024-01-11T16:21:50;8.43;;;5.78;;
52468;SDS011;38381;53.688;10.776;2024-01-11T16:26:51;11.40;;;7.15;;
52468;SDS011;38381;53.688;10.776;2024-01-11T16:31:51;18.80;;;8.40;;
52468;SDS011;38381;53.688;10.776;2024-01-11T16:36:51;10.52;;;7.30;;
52468;SDS011;38381;53.688;10.776;2024-01-11T16:41:52;9.38;;;7.10;;
52468;SDS011;38381;53.688;10.776;2024-01-11T16:46:52;8.20;;;6.38;;
52468;SDS011;38381;53.688;10.776;2024-01-11T16:51:53;7.20;;;5.93;;
52468;SDS011;38381;53.688;10.776;2024-01-11T16:56:54;13.32;;;7.85;;
52468;SDS011;38381;53.688;10.776;2024-01-11T17:01:55;10.80;;;7.38;;
52468;SDS011;38381;53.688;10.776;2024-01-11T17:06:55;11.05;;;8.50;;
52468;SDS011;38381;53.688;10.776;2024-01-11T17:11:56;11.55;;;8.88;;
52468;SDS011;38381;53.688;10.776;2024-01-11T17:16:56;11.32;;;7.85;;
52468;SDS011;38381;53.688;10.776;2024-01-11T17:21:57;9.70;;;7.65;;
52468;SDS011;38381;53.688;10.776;2024-01-11T17:26:57;10.40;;;8.85;;
52468;SDS011;38381;53.688;10.776;2024-01-11T17:32:04;13.55;;;8.07;;
52468;SDS011;38381;53.688;10.776;2024-01-11T17:37:04;9.52;;;7.88;;
52468;SDS011;38381;53.688;10.776;2024-01-11T17:42:05;13.68;;;8.10;;
52468;SDS011;38381;53.688;10.776;2024-01-11T17:47:05;10.07;;;7.45;;
52468;SDS011;38381;53.688;10.776;2024-01-11T17:52:06;11.25;;;8.27;;
52468;SDS011;38381;53.688;10.776;2024-01-11T17:57:07;11.15;;;8.93;;
52468;SDS011;38381;53.688;10.776;2024-01-11T18:02:07;11.18;;;9.27;;
52468;SDS011;38381;53.688;10.776;2024-01-11T18:07:08;22.27;;;11.60;;
52468;SDS011;38381;53.688;10.776;2024-01-11T18:12:08;16.45;;;9.75;;
52468;SDS011;38381;53.688;10.776;2024-01-11T18:17:08;9.48;;;8.25;;
52468;SDS011;38381;53.688;10.776;2024-01-11T18:22:09;13.93;;;9.32;;
52468;SDS011;38381;53.688;10.776;2024-01-11T18:27:09;18.65;;;8.57;;
52468;SDS011;38381;53.688;10.776;2024-01-11T18:32:10;10.40;;;9.35;;
52468;SDS011;38381;53.688;10.776;2024-01-11T18:37:10;9.75;;;8.75;;
52468;SDS011;38381;53.688;10.776;2024-01-11T18:42:11;13.73;;;8.57;;
52468;SDS011;38381;53.688;10.776;2024-01-11T18:47:13;9.57;;;8.67;;
52468;SDS011;38381;53.688;10.776;2024-01-11T18:52:13;11.68;;;10.48;;
52468;SDS011;38381;53.688;10.776;2024-01-11T18:57:13;11.35;;;9.73;;
52468;SDS011;38381;53.688;10.776;2024-01-11T19:02:15;15.77;;;10.35;;
52468;SDS011;38381;53.688;10.776;2024-01-11T19:07:15;12.88;;;10.40;;
52468;SDS011;38381;53.688;10.776;2024-01-11T19:12:15;11.88;;;9.77;;
52468;SDS011;38381;53.688;10.776;2024-01-11T19:17:16;13.70;;;11.40;;
52468;SDS011;38381;53.688;10.776;2024-01-11T19:22:16;13.50;;;10.82;;
52468;SDS011;38381;53.688;10.776;2024-01-11T19:27:17;11.07;;;9.48;;
52468;SDS011;38381;53.688;10.776;2024-01-11T19:32:17;12.45;;;10.05;;
52468;SDS011;38381;53.688;10.776;2024-01-11T19:37:18;13.50;;;10.18;;
52468;SDS011;38381;53.688;10.776;2024-01-11T19:42:18;17.02;;;10.93;;
52468;SDS011;38381;53.688;10.776;2024-01-11T19:47:19;15.88;;;12.02;;
52468;SDS011;38381;53.688;10.776;2024-01-11T19:52:19;13.27;;;10.93;;
52468;SDS011;38381;53.688;10.776;2024-01-11T19:57:19;13.57;;;9.68;;
52468;SDS011;38381;53.688;10.776;2024-01-11T20:02:22;12.15;;;10.52;;
52468;SDS011;38381;53.688;10.776;2024-01-11T20:07:22;12.70;;;9.63;;
52468;SDS011;38381;53.688;10.776;2024-01-11T20:12:24;13.60;;;9.83;;
52468;SDS011;38381;53.688;10.776;2024-01-11T20:17:24;15.88;;;9.75;;
52468;SDS011;38381;53.688;10.776;2024-01-11T20:22:26;12.57;;;10.18;;
52468;SDS011;38381;53.688;10.776;2024-01-11T20:27:27;11.13;;;8.85;;
52468;SDS011;38381;53.688;10.776;2024-01-11T20:32:27;16.05;;;11.77;;
52468;SDS011;38381;53.688;10.776;2024-01-11T20:37:28;14.52;;;11.18;;
52468;SDS011;38381;53.688;10.776;2024-01-11T20:42:29;14.55;;;11.82;;
52468;SDS011;38381;53.688;10.776;2024-01-11T20:47:29;17.98;;;11.77;;
52468;SDS011;38381;53.688;10.776;2024-01-11T20:52:31;16.02;;;11.75;;
52468;SDS011;38381;53.688;10.776;2024-01-11T20:57:31;12.93;;;11.73;;
52468;SDS011;38381;53.688;10.776;2024-01-11T21:02:32;12.00;;;9.85;;
52468;SDS011;38381;53.688;10.776;2024-01-11T21:07:33;15.25;;;10.25;;
52468;SDS011;38381;53.688;10.776;2024-01-11T21:12:34;10.70;;;9.55;;
52468;SDS011;38381;53.688;10.776;2024-01-11T21:17:35;13.02;;;10.32;;
52468;SDS011;38381;53.688;10.776;2024-01-11T21:22:36;11.27;;;9.65;;
52468;SDS011;38381;53.688;10.776;2024-01-11T21:27:36;15.63;;;11.90;;
52468;SDS011;38381;53.688;10.776;2024-01-11T21:32:37;23.58;;;16.85;;
52468;SDS011;38381;53.688;10.776;2024-01-11T21:37:37;16.00;;;12.65;;
52468;SDS011;38381;53.688;10.776;2024-01-11T21:42:40;14.00;;;11.27;;
52468;SDS011;38381;53.688;10.776;2024-01-11T21:47:40;13.77;;;11.43;;
52468;SDS011;38381;53.688;10.776;2024-01-11T21:52:41;12.57;;;10.73;;
52468;SDS011;38381;53.688;10.776;2024-01-11T21:57:41;11.88;;;10.18;;
52468;SDS011;38381;53.688;10.776;2024-01-11T22:02:42;13.25;;;11.95;;
52468;SDS011;38381;53.688;10.776;2024-01-11T22:07:42;11.45;;;9.63;;
52468;SDS011;38381;53.688;10.776;2024-01-11T22:12:42;13.48;;;10.82;;
52468;SDS011;38381;53.688;10.776;2024-01-11T22:17:43;10.77;;;9.68;;
52468;SDS011;38381;53.688;10.776;2024-01-11T22:22:44;13.43;;;10.43;;
52468;SDS011;38381;53.688;10.776;2024-01-11T22:27:44;10.75;;;9.70;;
52468;SDS011;38381;53.688;10.776;2024-01-11T22:32:46;12.27;;;10.82;;
52468;SDS011;38381;53.688;10.776;2024-01-11T22:37:47;14.35;;;11.85;;
52468;SDS011;38381;53.688;10.776;2024-01-11T22:42:48;11.90;;;10.80;;
52468;SDS011;38381;53.688;10.776;2024-01-11T22:47:48;13.18;;;11.07;;
52468;SDS011;38381;53.688;10.776;2024-01-11T22:52:49;13.40;;;11.20;;
52468;SDS011;38381;53.688;10.776;2024-01-11T22:57:49;13.43;;;11.40;;
52468;SDS011;38381;53.688;10.776;2024-01-11T23:02:50;14.75;;;11.23;;
52468;SDS011;38381;53.688;10.776;2024-01-11T23:07:50;13.40;;;11.32;;
52468;SDS011;38381;53.688;10.776;2024-01-11T23:12:51;13.75;;;11.70;;
52468;SDS011;38381;53.688;10.776;2024-01-11T23:17:51;13.60;;;12.20;;
52468;SDS011;38381;53.688;10.776;2024-01-11T23:22:51;14.00;;;11.40;;
52468;SDS011;38381;53.688;10.776;2024-01-11T23:27:52;11.70;;;10.50;;
52468;SDS011;38381;53.688;10.776;2024-01-11T23:32:52;12.23;;;9.52;;
52468;SDS011;38381;53.688;10.776;2024-01-11T23:42:55;11.55;;;10.30;;
52468;SDS011;38381;53.688;10.776;2024-01-11T23:47:55;12.43;;;10.02;;
52468;SDS011;38381;53.688;10.776;2024-01-11T23:52:56;10.63;;;9.35;;
52468;SDS011;38381;53.688;10.776;2024-01-11T23:57:56;14.75;;;10.30;;
